Flight Track Log - Related Links

Times and Time Zones

All times are in EST time to prevent confusion due to time zone crossing. See the SKW7367 flight status page for this flight to view local times or setup timezone preferences in your user account.

Time Position Orientation Groundspeed Altitude Reporting Facility
EST Latitude Longitude Course Direction KTS MPH feet Rate Location/Type
Fri 04:01:43 PM 42.2125 -83.3653 North 141 162 1,600  Level Cleveland Center
Fri 04:02:01 PM 42.2031 -83.3781 225° Southwest 165 190 2,400 3,266 Climbing Cleveland Center
Fri 04:03:02 PM 42.1692 -83.4381 233° Southwest 244 281 5,900 3,045 Climbing Cleveland Center
Fri 04:03:08 PM 42.1681 -83.4375 160° South 217 250 5,800 3,529 Descending Cleveland Center
Fri 04:04:00 PM 42.4545 -83.3701 North  Level Estimated
Fri 04:04:10 PM 42.1906 -83.5208 290° West 231 266 9,900  Level Cleveland Center
Fri 04:04:59 PM 42.2147 -83.6022 292° West 289 333 11,900 2,226 Climbing Cleveland Center
Fri 04:05:00 PM 42.5353 -83.3652 North  Level FlightAware Approximate
Fri 04:05:12 PM 42.2203 -83.6094 316° Northwest 269 310 12,200  Level Cleveland Center
Fri 04:06:00 PM 42.6160 -83.3711 North  Level Estimated
Fri 04:06:00 PM 42.2958 -83.6114 359° North 338 389 13,000  Level Cleveland Center
Fri 04:06:14 PM 42.3064 -83.6064 19° North 328 377 13,000  Level Cleveland Center
Fri 04:07:00 PM 42.6966 -83.3644 North  Level FlightAware Approximate
Fri 04:07:16 PM 42.3925 -83.5700 17° North 324 373 13,000  Level Cleveland Center
Fri 04:08:18 PM 42.4814 -83.5353 16° North 323 372 15,000 976 Climbing Cleveland Center
Fri 04:09:19 PM 42.5619 -83.5028 17° North 305 351 15,000  Level Cleveland Center
Fri 04:10:21 PM 42.6500 -83.4697 15° North 274 315 15,000  Level Cleveland Center
Fri 04:11:23 PM 42.7147 -83.4653 North 234 269 15,000  Level Cleveland Center
Fri 04:12:25 PM 42.7797 -83.4675 359° North 234 269 15,000  Level Cleveland Center
Fri 04:13:27 PM 42.8461 -83.4703 358° North 237 273 15,000  Level Cleveland Center
Fri 04:14:29 PM 42.9150 -83.4725 359° North 245 282 15,000  Level Cleveland Center
Fri 04:15:30 PM 42.9825 -83.4761 358° North 244 281 15,000  Level Cleveland Center
Fri 04:16:32 PM 43.0514 -83.4786 358° North 247 284 15,000  Level Cleveland Center
Fri 04:17:34 PM 43.1328 -83.4814 359° North 245 282 15,000  Level Cleveland Center
Fri 04:18:36 PM 43.2017 -83.4833 359° North 247 284 15,000  Level Cleveland Center
Fri 04:19:37 PM 43.2706 -83.4853 359° North 248 285 15,000  Level Cleveland Center
Fri 04:20:39 PM 43.3400 -83.4886 358° North 249 287 15,000  Level Cleveland Center
Fri 04:21:41 PM 43.4092 -83.4908 359° North 248 285 15,000  Level Cleveland Center
Fri 04:22:43 PM 43.4781 -83.4950 357° North 249 287 15,000  Level Cleveland Center
Fri 04:23:44 PM 43.5475 -83.4967 359° North 250 288 15,000  Level Cleveland Center
Fri 04:24:46 PM 43.6308 -83.4997 358° North 250 288 15,000  Level Cleveland Center
Fri 04:25:47 PM 43.6986 -83.5017 359° North 245 282 15,000  Level Cleveland Center
Fri 04:26:49 PM 43.7672 -83.5047 358° North 246 283 15,000  Level Cleveland Center
Fri 04:27:50 PM 43.8344 -83.5086 358° North 244 281 15,000  Level Cleveland Center
Fri 04:28:52 PM 43.9011 -83.5097 359° North 241 277 15,000  Level Cleveland Center
Fri 04:29:53 PM 43.9692 -83.5144 357° North 243 280 15,000  Level Cleveland Center
Fri 04:30:55 PM 44.0364 -83.5172 358° North 244 281 15,000  Level Cleveland Center
Fri 04:31:56 PM 44.1178 -83.5197 359° North 244 281 15,000  Level Cleveland Center
Fri 04:32:58 PM 44.1858 -83.5228 358° North 244 281 15,000  Level Cleveland Center
Fri 04:33:59 PM 44.2542 -83.5256 358° North 245 282 15,000  Level Cleveland Center
Fri 04:35:01 PM 44.3242 -83.5278 359° North 246 283 15,000  Level Cleveland Center
Fri 04:36:20 PM 44.4181 -83.5322 358° North 246 283 15,000 -300 Level Minneapolis Center
Fri 04:37:21 PM 44.4861 -83.5353 358° North 248 285 14,300 -1,561 Descending Minneapolis Center
Fri 04:38:23 PM 44.5550 -83.5383 358° North 250 288 11,800 -2,195 Descending Minneapolis Center
Fri 04:39:24 PM 44.6261 -83.5419 358° North 239 275 9,800 -1,512 Descending Minneapolis Center
Fri 04:40:26 PM 44.6839 -83.5281 10° North 214 246 8,700 -1,113 Descending Minneapolis Center
Fri 04:41:28 PM 44.7461 -83.5203 North 211 243 7,500 -976 Descending Minneapolis Center
Fri 04:42:29 PM 44.8042 -83.5200 360° North 212 244 6,700 -732 Descending Minneapolis Center
Fri 04:43:31 PM 44.8692 -83.5186 North 216 249 6,000 -677 Descending Minneapolis Center
Fri 04:44:33 PM 44.9289 -83.5144 North 218 251 5,300 -732 Descending Minneapolis Center
Fri 04:45:34 PM 44.9931 -83.5081 North 217 250 4,500 -683 Descending Minneapolis Center
Fri 04:46:36 PM 45.0517 -83.5036 North 216 249 3,900 -677 Descending Minneapolis Center
Fri 04:47:38 PM 45.1147 -83.4964 North 215 247 3,100 -683 Descending Minneapolis Center
Fri 04:48:39 PM 45.1622 -83.5008 356° North 185 213 2,500 -390 Descending Minneapolis Center
Fri 04:49:41 PM 45.1647 -83.5572 274° West 147 169 2,300 -435 Descending Minneapolis Center
Fri 04:50:43 PM 45.1311 -83.5617 185° South 127 146 1,600 -683 Descending Minneapolis Center
Fri 04:51:44 PM 45.0961 -83.5614 180° South 119 137 900 -439 Descending Minneapolis Center
Fri 04:52:46 PM 45.0675 -83.5617 180° South 118 136 700 -194 Descending Minneapolis Center

Login

Don't have an account? Register now (free) for customized features, flight alerts, and more!